ADDS METAR Data INFO
IDs: Format: Raw Decoded Include TAF

Data at: 1318 UTC 19 Jul 2018

KUXL 191255Z AUTO 00000KT 10SM CLR 28/25 A2996 RMK AO2 T02760252
KUXL 191235Z AUTO 00000KT 10SM CLR 28/25 A2996 RMK AO2 T02750251
KUXL 191215Z AUTO 00000KT 10SM CLR 27/25 A2995 RMK AO2 T02720250
KUXL 191155Z AUTO 24003KT 10SM CLR 27/25 A2994 RMK AO2 T02700250 10280 20266
KUXL 191135Z AUTO 24003KT 10SM CLR 27/25 A2994 RMK AO2 T02670248
KUXL 191115Z AUTO 00000KT 10SM CLR 27/25 A2994 RMK AO2 T02680248
KUXL 191055Z AUTO 24003KT 10SM CLR 27/25 A2993 RMK AO2 T02690250
KUXL 191035Z AUTO 00000KT 10SM CLR 27/25 A2993 RMK AO2 T02680250
KUXL 191015Z AUTO 00000KT 10SM CLR 27/25 A2993 RMK AO2 T02670250
KUXL 190955Z AUTO 25003KT 10SM CLR 27/25 A2993 RMK AO2 T02660251
KUXL 190935Z AUTO 00000KT 10SM CLR 27/25 A2993 RMK AO2 T02670250
KUXL 190915Z AUTO 25003KT 10SM CLR 27/25 A2993 RMK AO2 T02700249
KUXL 190855Z AUTO 24003KT 10SM CLR 27/25 A2993 RMK AO2 T02720249
KUXL 190835Z AUTO 22003KT 10SM CLR 27/25 A2993 RMK AO2 T02720248
KUXL 190815Z AUTO 22003KT 10SM CLR 27/25 A2992 RMK AO2 T02720247
KUXL 190755Z AUTO 21004KT 10SM CLR 27/25 A2992 RMK AO2 T02730247
KUXL 190735Z AUTO 22003KT 10SM CLR 28/25 A2992 RMK AO2 T02750246
KUXL 190715Z AUTO 21003KT 10SM CLR 28/25 A2993 RMK AO2 T02760247
KUXL 190655Z AUTO 23005KT 10SM CLR 28/25 A2993 RMK AO2 T02800247
KUXL 190635Z AUTO 22007KT 10SM CLR 28/25 A2993 RMK AO2 T02800250
KUXL 190615Z AUTO 22005KT 10SM CLR 28/25 A2994 RMK AO2 T02800250
KUXL 190555Z AUTO 21004KT 10SM CLR 28/25 A2995 RMK AO2 T02780250 10320 20277 403500261
KUXL 190535Z AUTO 23004KT 10SM CLR 28/25 A2995 RMK AO2 T02800250
KUXL 190515Z AUTO 21004KT 10SM CLR 28/25 A2995 RMK AO2 T02770250
KUXL 190455Z AUTO 20004KT 10SM CLR 28/25 A2995 RMK AO2 T02780247
KUXL 190435Z AUTO 22004KT 10SM CLR 28/25 A2995 RMK AO2 T02810247
KUXL 190415Z AUTO 23005KT 10SM CLR 28/25 A2996 RMK AO2 T02820248
KUXL 190355Z AUTO 22004KT 10SM CLR 29/25 A2996 RMK AO2 T02850247
KUXL 190335Z AUTO 23005KT 10SM CLR 29/25 A2996 RMK AO2 T02850247
KUXL 190315Z AUTO 22004KT 10SM CLR 29/25 A2996 RMK AO2 T02870250
KUXL 190255Z AUTO 22006KT 10SM CLR 29/25 A2996 RMK AO2 T02890247
KUXL 190235Z AUTO 22006KT 10SM CLR 29/25 A2996 RMK AO2 T02870248
KUXL 190215Z AUTO 21005KT 10SM CLR 29/25 A2996 RMK AO2 T02870247
KUXL 190155Z AUTO 21004KT 10SM CLR 29/25 A2995 RMK AO2 T02890248
KUXL 190135Z AUTO 19003KT 10SM CLR 29/25 A2996 RMK AO2 T02940250
KUXL 190115Z AUTO 20005KT 10SM SCT120 30/25 A2996 RMK AO2 T03000250
KUXL 190055Z AUTO 21005KT 10SM BKN120 31/25 A2995 RMK AO2 T03050250
KUXL 190035Z AUTO 20007KT 10SM BKN120 31/25 A2994 RMK AO2 T03100250
KUXL 190015Z AUTO 20008KT 10SM CLR 32/25 A2994 RMK AO2 T03150252
KUXL 182355Z AUTO 21009KT 10SM CLR 32/25 A2993 RMK AO2 T03200253 10350 20319
KUXL 182335Z AUTO 21010KT 10SM CLR 32/25 A2993 RMK AO2 T03210251
KUXL 182315Z AUTO 20010G15KT 10SM SCT060 33/25 A2993 RMK AO2 T03250251
KUXL 182255Z AUTO 20010KT 10SM SCT041 SCT048 BKN065 33/25 A2993 RMK AO2 T03290247
KUXL 182235Z AUTO 20010KT 10SM SCT041 SCT048 33/24 A2993 RMK AO2 T03320240
KUXL 182215Z AUTO 27003KT 10SM SCT047 35/22 A2994 RMK AO2 T03480219
KUXL 182155Z AUTO 00000KT 10SM SCT049 34/22 A2995 RMK AO2 T03440217
KUXL 182135Z AUTO 23005KT 10SM CLR 35/22 A2994 RMK AO2 T03480221
KUXL 182115Z AUTO 00000KT 10SM SCT048 35/22 A2995 RMK AO2 T03480218
KUXL 182055Z AUTO 34003KT 10SM CLR 34/22 A2996 RMK AO2 LTG DSNT NE T03430220
KUXL 182035Z AUTO 00000KT 10SM SCT043 34/21 A2996 RMK AO2 T03440213
KUXL 182015Z AUTO 00000KT 10SM SCT043 34/22 A2997 RMK AO2 T03350221
KUXL 181955Z AUTO 30004KT 10SM SCT041 34/22 A2998 RMK AO2 LTG DSNT NE T03390221
KUXL 181935Z AUTO 28007KT 10SM SCT038 SCT110 34/23 A2998 RMK AO2 T03360226
KUXL 181915Z AUTO 26008KT 10SM SCT038 SCT110 34/24 A2999 RMK AO2 T03360236
KUXL 181855Z AUTO 25007KT 10SM SCT038 33/23 A2999 RMK AO2 T03320231
KUXL 181835Z AUTO 23004KT 10SM SCT038 33/23 A3001 RMK AO2 T03320229
KUXL 181815Z AUTO 27005KT 10SM SCT036 34/23 A3001 RMK AO2 T03350230
KUXL 181755Z AUTO 23007KT 210V270 10SM SCT036 33/23 A3001 RMK AO2 T03300231 10331 20264
KUXL 181735Z AUTO 27003KT 10SM SCT034 33/23 A3002 RMK AO2 T03300230
KUXL 181715Z AUTO 25008KT 10SM SCT034 33/23 A3002 RMK AO2 T03260229
KUXL 181655Z AUTO 26005G14KT 10SM SCT030 32/23 A3002 RMK AO2 T03230228
KUXL 181635Z AUTO 27008KT 10SM SCT030 32/23 A3002 RMK AO2 T03220233
KUXL 181615Z AUTO 23010KT 10SM SCT028 32/23 A3003 RMK AO2 T03160231
KUXL 181550Z AUTO 24009KT 10SM SCT024 SCT029 31/24 A3003 RMK AO2 T03080238
KUXL 181535Z AUTO 25008KT 10SM SCT022 SCT029 31/24 A3003 RMK AO2 T03110241
KUXL 181515Z AUTO 26008KT 10SM SCT019 BKN024 BKN110 30/24 A3004 RMK AO2 T03010243
KUXL 181455Z AUTO 26008KT 10SM BKN019 BKN024 BKN110 30/25 A3004 RMK AO2 T03000248
KUXL 181435Z AUTO 27006KT 10SM BKN015 BKN022 BKN110 30/25 A3004 RMK AO2 T03000251
KUXL 181415Z AUTO 25009G15KT 10SM SCT015 SCT022 SCT110 30/25 A3004 RMK AO2 T02960250
KUXL 181355Z AUTO 26009KT 10SM SCT013 SCT019 BKN120 29/25 A3004 RMK AO2 T02900252
KUXL 181335Z AUTO 25009KT 10SM CLR 29/26 A3003 RMK AO2 T02900256
KUXL 181315Z AUTO 25004KT 10SM CLR 28/26 A3003 RMK AO2 T02830255
KUXL 181255Z AUTO 25004KT 10SM CLR 28/25 A3003 RMK AO2 T02760254
KUXL 181235Z AUTO 25003KT 10SM CLR 27/26 A3003 RMK AO2 T02720255
KUXL 181215Z AUTO 25003KT 10SM CLR 27/25 A3002 RMK AO2 T02670253
KUXL 181155Z AUTO 00000KT 10SM CLR 26/25 A3003 RMK AO2 T02640250 10275 20261
KUXL 181135Z AUTO 00000KT 10SM SCT110 26/25 A3003 RMK AO2 T02620250
KUXL 181115Z AUTO 00000KT 10SM BKN110 26/25 A3002 RMK AO2 T02620250
KUXL 181055Z AUTO 00000KT 10SM SCT016 SCT110 26/25 A3002 RMK AO2 T02630250
KUXL 181035Z AUTO 00000KT 10SM SCT016 26/25 A3002 RMK AO2 T02620250
KUXL 181015Z AUTO 00000KT 10SM CLR 26/25 A3001 RMK AO2 T02620250
KUXL 180955Z AUTO 00000KT 10SM CLR 26/25 A3001 RMK AO2 T02620249
KUXL 180935Z AUTO 00000KT 10SM CLR 26/25 A3001 RMK AO2 T02630250
KUXL 180915Z AUTO 00000KT 10SM CLR 27/26 A3001 RMK AO2 T02650256
KUXL 180855Z AUTO 00000KT 10SM CLR 27/26 A3000 RMK AO2 T02650256
KUXL 180835Z AUTO 00000KT 10SM CLR 27/26 A3000 RMK AO2 T02660256
KUXL 180815Z AUTO 00000KT 10SM CLR 27/26 A3000 RMK AO2 T02680258
KUXL 180755Z AUTO 00000KT 10SM CLR 27/26 A2999 RMK AO2 T02700255
KUXL 180735Z AUTO 00000KT 10SM CLR 27/26 A2999 RMK AO2 T02730255
KUXL 180715Z AUTO 22005KT 10SM CLR 28/26 A2999 RMK AO2 T02750255
KUXL 180655Z AUTO 23005KT 10SM CLR 27/26 A3000 RMK AO2 T02730255
KUXL 180635Z AUTO 21004KT 10SM CLR 27/25 A3000 RMK AO2 T02740251
KUXL 180615Z AUTO 22004KT 10SM CLR 28/25 A3001 RMK AO2 T02750251
KUXL 180555Z AUTO 22004KT 10SM CLR 28/25 A3001 RMK AO2 T02750251 10311 20275 403400252
KUXL 180535Z AUTO 21004KT 10SM CLR 28/25 A3001 RMK AO2 T02760251
KUXL 180515Z AUTO 22005KT 10SM CLR 28/25 A3002 RMK AO2 T02770250
KUXL 180455Z AUTO 22004KT 10SM CLR 28/25 A3002 RMK AO2 T02770250
KUXL 180435Z AUTO 23004KT 10SM CLR 28/25 A3003 RMK AO2 T02780250
KUXL 180415Z AUTO 23004KT 10SM CLR 28/25 A3003 RMK AO2 T02780250
KUXL 180355Z AUTO 22004KT 10SM CLR 28/25 A3003 RMK AO2 T02800250
KUXL 180335Z AUTO 22004KT 10SM CLR 28/25 A3003 RMK AO2 T02820250
KUXL 180315Z AUTO 22005KT 10SM CLR 29/25 A3003 RMK AO2 T02850250
KUXL 180255Z AUTO 21005KT 10SM CLR 29/25 A3002 RMK AO2 T02850251
KUXL 180235Z AUTO 21006KT 10SM CLR 29/25 A3002 RMK AO2 T02850251
KUXL 180215Z AUTO 20005KT 10SM CLR 29/25 A3002 RMK AO2 T02860250
KUXL 180155Z AUTO 21006KT 10SM CLR 29/25 A3001 RMK AO2 T02900247
KUXL 180135Z AUTO 21005KT 10SM CLR 29/25 A3001 RMK AO2 T02930247